Huvudsida
METAR-TAF:

METAR-TAF

Flygplatser :

Zahedan International Airport

Zahedan, Iran

latitud: 29-28N, longitud: 060-53E, höjd: 1370 m

Aktuellt väderrapport

Denna rapport gjordes för 31 minuter sedan, klockan 09:30 UTC
Vind 12 kt från nord/nordost
Temperatur 31°C
Fuktighet 24%
Tryck 1016 hPa
Sikt 10 km eller mer
Få moln på en höjd av 4000 ft, Högtornande cumulus.

METAR: OIZH 200930Z 03012KT 9999 FEW040TCU 31/08 Q1015 A2999

Tid: 14:31 (10:01 UTC)

Väderprognos

Denna rapport gjordes för 4 timmar och 11 minuter sedan, klockan 05:50 UTC
Prognos gäller från 20 kl. 06 UTC till 21 kl. 12 UTC
Vind 6 kt från nordost
Sikt 10 km eller mer
Inga moln under 1 500 m eller inga cumulonimbus
Temporärt
från 20 kl. 09 UTC till 20 kl. 15 UTC
Vind 18 kt från nord/nordost
Sannolikhet 40% :
Temporärt
från 20 kl. 10 UTC till 20 kl. 14 UTC
Sikt: 5000 m
utbrett stoft,

TAF: OIZH 200550Z 2006/2112 04006KT CAVOK TEMPO 2009/2015 02018KT PROB40 TEMPO 2010/2014 5000 DU

Aktuella väderrapporter och prognoser från 4000 flygplatser (METAR- och TAF-rapporter).

De tillgängliga stationerna syns som gula och röda prickar på kartan.

För musen över prickarna för att se namnen på stationerna.

Klicka sedan för att få väderrapporter och prognoser.

För att ändra kartan: Klicka på de gröna knapparna med ett svart kors på för att zooma in; den gröna knappen med ett streck på för att zooma ut; eller på de gröna pilarna för angränsande kartor.


METAR-TAF: